createdAt,value
2017-12-17T00:02:09.194Z,100733.98
2017-12-17T00:04:37.831Z,100728.91
2017-12-17T00:07:06.154Z,100736.12
2017-12-17T00:09:34.522Z,100729.80
2017-12-17T00:12:03.152Z,100736.17
2017-12-17T00:14:31.854Z,100738.72
2017-12-17T00:17:00.660Z,100738.33
2017-12-17T00:19:28.983Z,100745.07
2017-12-17T00:21:57.606Z,100746.34
2017-12-17T00:24:25.991Z,100755.19
2017-12-17T00:26:54.597Z,100755.67
2017-12-17T00:29:23.272Z,100751.47
2017-12-17T00:31:51.922Z,100757.80
2017-12-17T00:34:20.558Z,100761.59
2017-12-17T00:36:49.213Z,100763.74
2017-12-17T00:39:17.830Z,100767.13
2017-12-17T00:41:46.509Z,100769.26
2017-12-17T00:44:15.157Z,100771.78
2017-12-17T00:46:43.803Z,100767.62
2017-12-17T00:49:12.479Z,100770.11
2017-12-17T00:51:41.101Z,100772.25
2017-12-17T00:54:09.788Z,100776.47
2017-12-17T00:56:38.471Z,100776.89
2017-12-17T00:59:07.109Z,100780.69
2017-12-17T01:01:35.790Z,100771.84
2017-12-17T01:04:04.505Z,100776.06
2017-12-17T01:06:33.157Z,100777.35
2017-12-17T01:09:08.010Z,100780.75
2017-12-17T01:11:36.663Z,100781.18
2017-12-17T01:14:05.352Z,100782.87
2017-12-17T01:16:33.674Z,100791.73
2017-12-17T01:19:02.200Z,100788.80
2017-12-17T01:21:30.866Z,100791.76
2017-12-17T01:23:59.544Z,100793.47
2017-12-17T01:26:28.163Z,100788.84
2017-12-17T01:28:56.808Z,100795.63
2017-12-17T01:31:25.426Z,100803.21
2017-12-17T01:33:54.086Z,100814.62
2017-12-17T01:36:22.699Z,100811.30
2017-12-17T01:38:51.335Z,100814.28
2017-12-17T01:41:20.005Z,100818.95
2017-12-17T01:43:48.354Z,100822.73
2017-12-17T01:46:16.685Z,100821.91
2017-12-17T01:48:45.069Z,100829.95
2017-12-17T01:51:13.737Z,100841.39
2017-12-17T01:53:42.101Z,100840.13
2017-12-17T01:56:11.293Z,100841.80
2017-12-17T01:58:39.695Z,100832.14
2017-12-17T02:01:08.323Z,100843.13
2017-12-17T02:03:37.074Z,100842.31
2017-12-17T02:06:08.950Z,100846.52
2017-12-17T02:08:37.286Z,100850.75
2017-12-17T02:11:06.043Z,100845.31
2017-12-17T02:13:34.682Z,100844.91
2017-12-17T02:16:07.119Z,100850.81
2017-12-17T02:18:35.494Z,100854.63
2017-12-17T02:21:03.814Z,100862.23
2017-12-17T02:23:32.188Z,100865.22
2017-12-17T02:26:00.543Z,100874.08
2017-12-17T02:28:29.170Z,100869.86
2017-12-17T02:30:57.921Z,100877.03
2017-12-17T02:33:26.254Z,100876.63
2017-12-17T02:35:54.640Z,100882.99
2017-12-17T02:38:23.279Z,100881.71
2017-12-17T02:40:51.721Z,100891.84
2017-12-17T02:43:20.056Z,100888.08
2017-12-17T02:45:48.386Z,100889.77
2017-12-17T02:48:16.758Z,100895.27
2017-12-17T02:50:45.101Z,100896.09
2017-12-17T02:53:13.493Z,100899.91
2017-12-17T02:55:43.833Z,100904.97
2017-12-17T02:58:12.161Z,100907.09
2017-12-17T03:00:40.591Z,100905.43
2017-12-17T03:03:09.330Z,100906.68
2017-12-17T03:05:37.451Z,100911.75
2017-12-17T03:08:05.774Z,100913.45
2017-12-17T03:10:34.140Z,100919.36
2017-12-17T03:13:02.471Z,100918.52
2017-12-17T03:15:30.859Z,100914.32
2017-12-17T03:17:59.207Z,100921.90
2017-12-17T03:20:27.581Z,100926.09
2017-12-17T03:22:55.962Z,100934.93
2017-12-17T03:25:24.297Z,100929.89
2017-12-17T03:27:52.627Z,100922.73
2017-12-17T03:30:21.054Z,100934.53
2017-12-17T03:32:49.464Z,100931.59
2017-12-17T03:35:17.787Z,100936.21
2017-12-17T03:37:46.153Z,100940.42
2017-12-17T03:40:14.538Z,100949.69
2017-12-17T03:42:42.889Z,100943.36
2017-12-17T03:45:11.234Z,100947.17
2017-12-17T03:47:39.828Z,100956.43
2017-12-17T03:50:08.158Z,100961.48
2017-12-17T03:52:36.538Z,100959.37
2017-12-17T03:55:04.910Z,100971.58
2017-12-17T03:57:33.233Z,100965.26
2017-12-17T04:00:01.608Z,100967.78
2017-12-17T04:02:29.941Z,100977.05
2017-12-17T04:04:58.310Z,100982.95
2017-12-17T04:07:26.646Z,100988.43
2017-12-17T04:09:55.035Z,100989.70
2017-12-17T04:12:23.166Z,100999.79
2017-12-17T04:14:51.531Z,101005.26
2017-12-17T04:17:20.193Z,101009.48
2017-12-17T04:19:48.517Z,101014.95
2017-12-17T04:22:17.220Z,101019.17
2017-12-17T04:24:45.534Z,101030.11
2017-12-17T04:27:13.902Z,101033.48
2017-12-17T04:29:42.279Z,101034.33
2017-12-17T04:32:10.606Z,101041.06
2017-12-17T04:34:39.274Z,101043.60
2017-12-17T04:37:07.926Z,101046.13
2017-12-17T04:39:36.293Z,101051.61
2017-12-17T04:42:04.666Z,101052.45
2017-12-17T04:44:33.294Z,101047.80
2017-12-17T04:47:01.639Z,101049.91
2017-12-17T04:49:30.002Z,101047.38
2017-12-17T04:51:58.319Z,101052.44
2017-12-17T04:54:26.698Z,101056.65
2017-12-17T04:56:55.021Z,101058.33
2017-12-17T04:59:23.334Z,101052.02
2017-12-17T05:01:51.700Z,101059.17
2017-12-17T05:04:20.365Z,101059.60
2017-12-17T05:06:48.726Z,101065.92
2017-12-17T05:09:17.354Z,101076.03
2017-12-17T05:11:46.023Z,101080.25
2017-12-17T05:14:14.664Z,101079.83
2017-12-17T05:16:43.375Z,101088.66
2017-12-17T05:19:11.707Z,101098.77
2017-12-17T05:21:40.038Z,101095.41
2017-12-17T05:24:08.409Z,101102.14
2017-12-17T05:26:36.741Z,101104.67
2017-12-17T05:29:05.120Z,101104.68
2017-12-17T05:31:33.795Z,101111.41
2017-12-17T05:34:02.132Z,101106.36
2017-12-17T05:36:30.506Z,101115.20
2017-12-17T05:38:59.145Z,101116.89
2017-12-17T05:41:31.577Z,101129.10
2017-12-17T05:44:01.539Z,101129.94
2017-12-17T05:46:32.755Z,101134.16
2017-12-17T05:49:03.858Z,101141.31
2017-12-17T05:51:32.309Z,101146.78
2017-12-17T05:54:01.007Z,101152.26
2017-12-17T05:56:30.499Z,101150.57
2017-12-17T05:59:00.163Z,101163.63
2017-12-17T06:01:31.004Z,101156.89
2017-12-17T06:04:01.854Z,101156.05
2017-12-17T06:06:30.689Z,101161.94
2017-12-17T06:08:59.075Z,101158.98
2017-12-17T06:11:27.706Z,101156.88
2017-12-17T06:13:56.037Z,101162.80
2017-12-17T06:16:24.730Z,101160.27
2017-12-17T06:18:53.370Z,101172.91
2017-12-17T06:21:21.757Z,101172.91
2017-12-17T06:23:51.944Z,101170.79
2017-12-17T06:26:22.181Z,101180.06
2017-12-17T06:28:52.016Z,101184.69
2017-12-17T06:31:21.130Z,101189.31
2017-12-17T06:33:49.873Z,101193.14
2017-12-17T06:36:19.375Z,101193.97
2017-12-17T06:38:49.218Z,101201.55
2017-12-17T06:41:19.033Z,101210.81
2017-12-17T06:43:48.543Z,101211.66
2017-12-17T06:46:18.906Z,101214.60
2017-12-17T06:48:49.160Z,101222.19
2017-12-17T06:51:19.843Z,101233.98
2017-12-17T06:53:48.474Z,101228.95
2017-12-17T06:56:19.236Z,101233.58
2017-12-17T06:58:49.136Z,101240.74
2017-12-17T07:01:17.682Z,101242.42
2017-12-17T07:03:46.147Z,101247.48
2017-12-17T07:06:15.426Z,101246.21
2017-12-17T07:08:45.452Z,101249.58
2017-12-17T07:11:15.377Z,101257.59
2017-12-17T07:13:44.966Z,101257.59
2017-12-17T07:16:15.993Z,101259.30
2017-12-17T07:18:44.425Z,101266.88
2017-12-17T07:21:12.802Z,101266.03
2017-12-17T07:23:42.476Z,101267.30
2017-12-17T07:26:19.906Z,101272.35
2017-12-17T07:28:50.339Z,101273.20
2017-12-17T07:31:34.643Z,101278.67
2017-12-17T07:34:18.281Z,101282.88
2017-12-17T07:36:59.575Z,101284.99
2017-12-17T07:39:39.885Z,101292.16
2017-12-17T07:42:09.086Z,101295.52
2017-12-17T07:44:38.006Z,101298.89
2017-12-17T07:52:37.183Z,101314.94
2017-12-17T07:55:05.618Z,101319.15
2017-12-17T07:57:34.490Z,101316.62
2017-12-17T08:00:02.873Z,101315.77
2017-12-17T08:02:31.626Z,101315.77
2017-12-17T08:05:01.022Z,101318.30
2017-12-17T08:07:29.356Z,101325.04
2017-12-17T08:09:58.621Z,101325.89
2017-12-17T08:12:27.377Z,101331.36
2017-12-17T08:15:02.455Z,101333.47
2017-12-17T08:17:31.264Z,101343.61
2017-12-17T08:20:04.145Z,101348.67
2017-12-17T08:22:32.570Z,101352.47
2017-12-17T08:25:00.949Z,101360.48
2017-12-17T08:27:29.322Z,101363.00
2017-12-17T08:29:57.767Z,101366.80
2017-12-17T08:32:26.450Z,101371.44
2017-12-17T08:34:55.137Z,101373.12
2017-12-17T08:37:23.479Z,101374.80
2017-12-17T08:39:51.849Z,101378.59
2017-12-17T08:42:20.533Z,101383.23
2017-12-17T08:44:49.363Z,101385.77
2017-12-17T08:47:17.776Z,101398.44
2017-12-17T08:49:46.232Z,101401.39
2017-12-17T08:52:14.569Z,101407.30
2017-12-17T08:54:42.937Z,101411.51
2017-12-17T08:57:11.672Z,101411.09
2017-12-17T08:59:40.331Z,101423.31
2017-12-17T09:02:11.190Z,101424.16
2017-12-17T09:04:40.479Z,101424.58
2017-12-17T09:07:10.575Z,101424.16
2017-12-17T09:09:40.087Z,101430.48
2017-12-17T09:12:09.409Z,101441.02
2017-12-17T09:14:39.721Z,101446.93
2017-12-17T09:17:08.474Z,101444.81
2017-12-17T09:19:37.164Z,101460.00
2017-12-17T09:22:06.006Z,101456.20
2017-12-17T09:24:34.692Z,101459.58
2017-12-17T09:27:03.013Z,101460.45
2017-12-17T09:29:31.654Z,101466.36
2017-12-17T09:32:00.357Z,101463.41
2017-12-17T09:34:32.170Z,101460.03
2017-12-17T09:37:00.814Z,101472.26
2017-12-17T09:39:29.467Z,101473.09
2017-12-17T09:41:58.129Z,101489.55
2017-12-17T09:44:26.507Z,101495.88
2017-12-17T09:46:57.230Z,101500.55
2017-12-17T09:49:27.543Z,101502.23
2017-12-17T09:51:55.898Z,101505.61
2017-12-17T09:54:24.556Z,101501.38
2017-12-17T09:56:53.245Z,101499.70
2017-12-17T09:59:21.907Z,101504.34
2017-12-17T10:01:50.234Z,101503.92
2017-12-17T10:04:18.970Z,101509.81
2017-12-17T10:06:47.627Z,101510.66
2017-12-17T10:09:16.328Z,101515.73
2017-12-17T10:11:45.035Z,101511.51
2017-12-17T10:14:13.378Z,101519.09
2017-12-17T10:16:42.273Z,101520.36
2017-12-17T10:19:10.999Z,101525.03
2017-12-17T10:21:39.392Z,101525.03
2017-12-17T10:24:07.712Z,101525.45
2017-12-17T10:26:36.385Z,101520.81
2017-12-17T10:29:04.771Z,101516.17
2017-12-17T10:31:33.478Z,101519.55
2017-12-17T10:34:02.130Z,101517.85
2017-12-17T10:36:30.804Z,101516.59
2017-12-17T10:38:59.311Z,101518.72
2017-12-17T10:41:28.029Z,101522.52
2017-12-17T10:43:56.352Z,101523.36
2017-12-17T10:46:25.191Z,101521.67
2017-12-17T10:48:53.879Z,101526.73
2017-12-17T10:51:22.538Z,101529.69
2017-12-17T10:53:50.922Z,101520.43
2017-12-17T11:00:11.161Z,101528.29
2017-12-17T11:04:07.051Z,101519.13
2017-12-17T11:06:36.570Z,101529.14
2017-12-17T11:09:05.766Z,101524.83
2017-12-17T11:11:34.220Z,101520.28
2017-12-17T11:14:03.558Z,101515.45
2017-12-17T11:16:32.257Z,101520.27
2017-12-17T11:19:00.954Z,101523.71
2017-12-17T11:21:29.713Z,101512.34
2017-12-17T11:23:58.096Z,101517.85
2017-12-17T11:26:26.749Z,101514.09
2017-12-17T11:28:57.180Z,101514.51
2017-12-17T11:31:25.891Z,101515.37
2017-12-17T11:33:54.222Z,101509.44
2017-12-17T11:36:22.612Z,101511.98
2017-12-17T11:38:53.123Z,101508.59
2017-12-17T11:41:22.137Z,101511.56
2017-12-17T11:43:54.343Z,101510.29
2017-12-17T11:46:23.319Z,101513.67
2017-12-17T11:48:52.768Z,101505.64
2017-12-17T11:51:28.660Z,101505.22
2017-12-17T11:54:19.317Z,101509.87
2017-12-17T11:57:00.956Z,101511.98
2017-12-17T11:59:40.991Z,101508.61
2017-12-17T12:02:20.189Z,101508.62
2017-12-17T12:04:59.967Z,101508.60
2017-12-17T12:07:39.732Z,101511.14
2017-12-17T12:10:19.999Z,101520.00
2017-12-17T12:13:03.181Z,101521.29
2017-12-17T12:15:51.193Z,101517.90
2017-12-17T12:21:27.405Z,101526.77
2017-12-17T12:24:11.373Z,101525.09
2017-12-17T12:26:52.851Z,101526.34
2017-12-17T12:29:38.410Z,101533.95
2017-12-17T12:32:24.184Z,101536.06
2017-12-17T12:35:12.696Z,101533.11
2017-12-17T12:38:01.811Z,101536.47
2017-12-17T12:43:21.346Z,101533.94
2017-12-17T12:45:59.681Z,101534.79
2017-12-17T12:48:46.001Z,101539.86
2017-12-17T12:51:20.554Z,101532.25
2017-12-17T12:53:52.282Z,101531.83
2017-12-17T12:56:25.274Z,101524.23
2017-12-17T12:59:04.385Z,101521.72
2017-12-17T13:01:40.851Z,101532.67
2017-12-17T13:04:19.446Z,101524.23
2017-12-17T13:07:00.859Z,101531.41
2017-12-17T13:09:37.859Z,101529.30
2017-12-17T13:12:16.468Z,101535.22
2017-12-17T13:14:58.405Z,101531.84
2017-12-17T13:17:36.411Z,101539.86
2017-12-17T13:20:17.840Z,101541.54
2017-12-17T13:23:03.272Z,101547.88
2017-12-17T13:25:48.749Z,101554.20
2017-12-17T13:28:30.935Z,101553.38
2017-12-17T13:31:08.475Z,101551.68
2017-12-17T13:33:52.358Z,101550.84
2017-12-17T13:36:25.087Z,101558.87
2017-12-17T13:38:54.050Z,101555.91
2017-12-17T13:41:23.397Z,101561.39
2017-12-17T13:43:52.687Z,101568.15
2017-12-17T13:46:22.161Z,101571.53
2017-12-17T13:48:53.872Z,101575.33
2017-12-17T13:51:25.513Z,101572.80
2017-12-17T13:53:58.149Z,101574.48
2017-12-17T13:56:30.843Z,101573.21
2017-12-17T13:59:02.153Z,101576.17
2017-12-17T14:01:33.428Z,101574.06
2017-12-17T14:04:04.618Z,101578.28
2017-12-17T14:06:36.163Z,101581.66
2017-12-17T14:09:07.322Z,101583.36
2017-12-17T14:11:38.930Z,101581.25
2017-12-17T14:14:10.064Z,101583.80
2017-12-17T14:16:42.881Z,101587.16
2017-12-17T14:19:14.238Z,101591.36
2017-12-17T14:21:45.877Z,101594.77
2017-12-17T14:24:17.192Z,101589.67
2017-12-17T14:26:48.805Z,101589.26
2017-12-17T14:29:20.596Z,101595.18
2017-12-17T14:31:52.015Z,101601.46
2017-12-17T14:34:23.342Z,101600.65
2017-12-17T14:36:54.676Z,101606.14
2017-12-17T14:39:26.517Z,101612.86
2017-12-17T14:41:57.695Z,101609.03
2017-12-17T14:44:30.124Z,101617.93
2017-12-17T14:47:02.151Z,101615.39
2017-12-17T14:49:34.285Z,101618.73
2017-12-17T14:52:06.279Z,101615.75
2017-12-17T14:54:38.746Z,101620.81
2017-12-17T14:57:10.690Z,101627.14
2017-12-17T14:59:43.219Z,101626.72
2017-12-17T15:02:15.990Z,101622.46
2017-12-17T15:04:48.316Z,101620.30
2017-12-17T15:07:20.294Z,101622.03
2017-12-17T15:09:52.444Z,101619.89
2017-12-17T15:12:24.860Z,101624.53
2017-12-17T15:14:57.050Z,101627.05
2017-12-17T15:17:29.444Z,101625.36
2017-12-17T15:20:01.420Z,101627.84
2017-12-17T15:22:33.623Z,101629.95
2017-12-17T15:25:06.163Z,101628.64
2017-12-17T15:33:53.859Z,101634.94
2017-12-17T15:36:27.893Z,101626.88
2017-12-17T15:39:02.161Z,101637.00
2017-12-17T15:41:36.166Z,101633.61
2017-12-17T15:44:10.661Z,101625.61
2017-12-17T15:46:44.829Z,101630.61
2017-12-17T15:49:18.991Z,101627.67
2017-12-17T15:51:53.214Z,101631.87
2017-12-17T15:54:33.489Z,101625.53
2017-12-17T15:57:08.942Z,101626.80
2017-12-17T15:59:43.351Z,101630.55
2017-12-17T16:02:18.412Z,101632.16
2017-12-17T16:04:52.694Z,101627.16
2017-12-17T16:07:26.814Z,101630.94
2017-12-17T16:10:01.006Z,101635.57
2017-12-17T16:12:35.610Z,101638.48
2017-12-17T16:15:09.719Z,101649.01
2017-12-17T16:17:43.925Z,101647.65
2017-12-17T16:20:18.283Z,101639.22
2017-12-17T16:22:52.421Z,101648.42
2017-12-17T16:25:26.303Z,101650.15
2017-12-17T16:28:00.534Z,101651.41
2017-12-17T16:30:34.654Z,101652.16
2017-12-17T16:33:09.186Z,101640.80
2017-12-17T16:35:43.982Z,101640.39
2017-12-17T16:38:18.610Z,101643.66
2017-12-17T16:40:53.158Z,101640.46
2017-12-17T16:43:27.404Z,101647.47
2017-12-17T16:46:01.616Z,101653.84
2017-12-17T16:48:35.818Z,101646.70
2017-12-17T16:51:10.038Z,101649.55
2017-12-17T16:53:44.251Z,101644.05
2017-12-17T16:56:18.137Z,101641.13
2017-12-17T16:58:52.337Z,101643.56
2017-12-17T17:01:26.567Z,101641.13
2017-12-17T17:04:00.735Z,101642.30
2017-12-17T17:06:34.756Z,101642.61
2017-12-17T17:09:09.683Z,101640.50
2017-12-17T17:11:44.002Z,101644.41
2017-12-17T17:14:19.334Z,101646.09
2017-12-17T17:17:05.960Z,101649.05
2017-12-17T17:19:41.179Z,101637.13
2017-12-17T17:22:17.192Z,101639.21
2017-12-17T17:24:54.552Z,101646.01
2017-12-17T17:27:28.724Z,101640.11
2017-12-17T17:30:03.851Z,101640.11
2017-12-17T17:32:38.352Z,101633.73
2017-12-17T17:35:12.723Z,101631.98
2017-12-17T17:37:47.535Z,101626.61
2017-12-17T17:40:21.799Z,101626.53
2017-12-17T17:42:56.364Z,101623.95
2017-12-17T17:45:30.319Z,101622.63
2017-12-17T17:48:10.391Z,101626.84
2017-12-17T17:50:45.420Z,101626.00
2017-12-17T17:53:26.381Z,101620.91
2017-12-17T17:56:02.901Z,101617.45
2017-12-17T17:58:36.861Z,101611.52
2017-12-17T18:01:11.013Z,101606.90
2017-12-17T18:03:47.315Z,101600.48
2017-12-17T18:06:22.091Z,101606.77
2017-12-17T18:08:57.216Z,101609.13
2017-12-17T18:11:31.307Z,101602.63
2017-12-17T18:14:05.756Z,101604.70
2017-12-17T18:16:40.782Z,101608.14
2017-12-17T18:19:15.158Z,101617.77
2017-12-17T18:21:49.068Z,101610.17
2017-12-17T18:24:23.837Z,101602.92
2017-12-17T18:26:57.814Z,101600.03
2017-12-17T18:29:32.921Z,101599.93
2017-12-17T18:32:07.123Z,101606.25
2017-12-17T18:34:48.070Z,101603.28
2017-12-17T18:37:24.414Z,101608.33
2017-12-17T18:39:58.991Z,101609.66
2017-12-17T18:42:33.215Z,101608.03
2017-12-17T18:45:07.225Z,101605.82
2017-12-17T18:47:41.643Z,101611.64
2017-12-17T18:50:18.645Z,101609.95
2017-12-17T18:52:52.809Z,101609.94
2017-12-17T18:55:26.358Z,101604.91
2017-12-17T18:58:00.553Z,101605.75
2017-12-17T19:00:34.669Z,101604.48
2017-12-17T19:03:09.033Z,101597.73
2017-12-17T19:05:46.258Z,101600.27
2017-12-17T19:08:20.744Z,101602.66
2017-12-17T19:10:54.722Z,101606.02
2017-12-17T19:13:28.829Z,101597.20
2017-12-17T19:16:02.830Z,101594.34
2017-12-17T19:18:37.038Z,101599.69
2017-12-17T19:21:10.708Z,101595.48
2017-12-17T19:23:44.833Z,101608.96
2017-12-17T19:26:18.477Z,101603.94
2017-12-17T19:28:52.650Z,101602.65
2017-12-17T19:31:26.925Z,101603.46
2017-12-17T19:34:01.109Z,101595.89
2017-12-17T19:36:35.404Z,101596.37
2017-12-17T19:39:09.943Z,101594.12
2017-12-17T19:41:43.801Z,101599.22
2017-12-17T19:44:14.393Z,101598.72
2017-12-17T19:46:44.198Z,101593.70
2017-12-17T19:49:14.034Z,101596.28
2017-12-17T19:51:44.873Z,101593.37
2017-12-17T19:54:14.745Z,101593.70
2017-12-17T19:56:44.606Z,101608.83
2017-12-17T19:59:14.539Z,101605.53
2017-12-17T20:01:44.415Z,101599.55
2017-12-17T20:04:15.381Z,101613.02
2017-12-17T20:06:47.186Z,101609.34
2017-12-17T20:09:17.419Z,101618.18
2017-12-17T20:11:47.256Z,101631.19
2017-12-17T20:14:17.146Z,101621.88
2017-12-17T20:16:46.927Z,101621.88
2017-12-17T20:19:16.594Z,101627.03
2017-12-17T20:21:46.254Z,101631.61
2017-12-17T20:24:15.950Z,101632.77
2017-12-17T20:26:45.642Z,101627.30
2017-12-17T20:29:15.296Z,101620.97
2017-12-17T20:31:45.022Z,101625.19
2017-12-17T20:34:14.703Z,101631.27
2017-12-17T20:36:48.348Z,101629.09
2017-12-17T20:39:18.158Z,101621.04
2017-12-17T20:41:48.734Z,101621.56
2017-12-17T20:44:18.230Z,101617.36
2017-12-17T20:46:48.078Z,101615.25
2017-12-17T20:49:17.923Z,101608.62
2017-12-17T20:51:47.729Z,101615.38
2017-12-17T20:54:17.557Z,101615.34
2017-12-17T20:56:47.374Z,101615.34
2017-12-17T20:59:17.249Z,101616.25
2017-12-17T21:01:47.235Z,101611.58
2017-12-17T21:04:17.063Z,101610.30
2017-12-17T21:06:46.956Z,101609.45
2017-12-17T21:09:16.873Z,101604.44
2017-12-17T21:11:46.721Z,101606.96
2017-12-17T21:14:16.539Z,101595.20
2017-12-17T21:16:46.392Z,101598.16
2017-12-17T21:19:16.187Z,101599.91
2017-12-17T21:21:46.039Z,101596.48
2017-12-17T21:24:15.859Z,101603.64
2017-12-17T21:26:45.658Z,101592.28
2017-12-17T21:29:15.462Z,101597.02
2017-12-17T21:31:45.253Z,101597.84
2017-12-17T21:34:15.142Z,101594.08
2017-12-17T21:36:44.977Z,101582.75
2017-12-17T21:39:14.798Z,101584.00
2017-12-17T21:41:44.618Z,101587.43
2017-12-17T21:44:14.418Z,101582.84
2017-12-17T21:46:44.273Z,101586.63
2017-12-17T21:49:14.046Z,101588.73
2017-12-17T21:51:43.872Z,101583.75
2017-12-17T21:54:13.673Z,101581.70
2017-12-17T21:56:43.487Z,101575.39
2017-12-17T21:59:13.005Z,101577.59
2017-12-17T22:01:42.859Z,101571.62
2017-12-17T22:04:12.754Z,101569.98
2017-12-17T22:06:42.601Z,101575.48
2017-12-17T22:09:12.482Z,101563.30
2017-12-17T22:11:42.271Z,101564.53
2017-12-17T22:14:11.885Z,101558.25
2017-12-17T22:16:41.725Z,101562.92
2017-12-17T22:19:11.527Z,101554.11
2017-12-17T22:21:41.343Z,101560.02
2017-12-17T22:24:13.206Z,101557.09
2017-12-17T22:26:43.631Z,101552.93
2017-12-17T22:29:13.439Z,101553.71
2017-12-17T22:31:43.264Z,101548.30
2017-12-17T22:34:13.093Z,101545.39
2017-12-17T22:36:42.948Z,101536.97
2017-12-17T22:39:12.990Z,101542.09
2017-12-17T22:41:43.236Z,101540.81
2017-12-17T22:44:13.143Z,101537.48
2017-12-17T22:46:43.213Z,101548.84
2017-12-17T22:49:13.066Z,101535.44
2017-12-17T22:51:42.927Z,101539.22
2017-12-17T22:54:13.055Z,101539.24
2017-12-17T22:56:42.882Z,101532.08
2017-12-17T22:59:12.742Z,101533.82
2017-12-17T23:01:42.525Z,101533.40
2017-12-17T23:04:12.622Z,101528.77
2017-12-17T23:06:42.378Z,101523.71
2017-12-17T23:09:12.234Z,101514.03
2017-12-17T23:15:03.290Z,101510.30
2017-12-17T23:17:51.843Z,101503.57
2017-12-17T23:20:28.809Z,101500.63
2017-12-17T23:23:04.541Z,101509.53
2017-12-17T23:25:37.939Z,101508.27
2017-12-17T23:28:14.525Z,101501.52
2017-12-17T23:30:47.644Z,101509.11
2017-12-17T23:33:21.651Z,101505.36
2017-12-17T23:35:53.926Z,101509.16
2017-12-17T23:38:28.781Z,101506.22
2017-12-17T23:41:01.385Z,101504.95
2017-12-17T23:43:33.769Z,101509.63
2017-12-17T23:46:07.210Z,101501.59
2017-12-17T23:48:40.927Z,101504.58
2017-12-17T23:51:23.263Z,101509.62
2017-12-17T23:54:08.270Z,101502.05
2017-12-17T23:56:47.119Z,101499.95
